sensor_id;sensor_type;location;lat;lon;timestamp;P1;durP1;ratioP1;P2;durP2;ratioP2
66970;SDS011;53901;51.466;-2.588;2022-09-09T00:00:49;11.75;;;7.18;;
66970;SDS011;53901;51.466;-2.588;2022-09-09T00:03:23;14.57;;;7.97;;
66970;SDS011;53901;51.466;-2.588;2022-09-09T00:08:20;10.20;;;7.07;;
66970;SDS011;53901;51.466;-2.588;2022-09-09T00:10:50;13.25;;;7.60;;
66970;SDS011;53901;51.466;-2.588;2022-09-09T00:13:19;14.27;;;8.48;;
66970;SDS011;53901;51.466;-2.588;2022-09-09T00:25:59;6.82;;;4.47;;
66970;SDS011;53901;51.466;-2.588;2022-09-09T00:28:28;14.15;;;4.40;;
66970;SDS011;53901;51.466;-2.588;2022-09-09T00:31:01;9.95;;;4.43;;
66970;SDS011;53901;51.466;-2.588;2022-09-09T00:33:36;7.85;;;3.25;;
66970;SDS011;53901;51.466;-2.588;2022-09-09T00:36:04;8.50;;;3.85;;
66970;SDS011;53901;51.466;-2.588;2022-09-09T00:38:42;11.05;;;3.58;;
66970;SDS011;53901;51.466;-2.588;2022-09-09T00:41:31;6.63;;;3.40;;
66970;SDS011;53901;51.466;-2.588;2022-09-09T00:44:31;10.55;;;3.30;;
66970;SDS011;53901;51.466;-2.588;2022-09-09T00:57:47;6.57;;;2.70;;
66970;SDS011;53901;51.466;-2.588;2022-09-09T01:05:28;8.63;;;2.92;;
66970;SDS011;53901;51.466;-2.588;2022-09-09T01:08:00;7.28;;;2.55;;
66970;SDS011;53901;51.466;-2.588;2022-09-09T01:16:07;5.93;;;2.83;;
66970;SDS011;53901;51.466;-2.588;2022-09-09T01:18:40;6.60;;;2.55;;
66970;SDS011;53901;51.466;-2.588;2022-09-09T01:21:13;5.93;;;2.70;;
66970;SDS011;53901;51.466;-2.588;2022-09-09T01:23:53;7.38;;;3.05;;
66970;SDS011;53901;51.466;-2.588;2022-09-09T01:26:47;5.78;;;2.92;;
66970;SDS011;53901;51.466;-2.588;2022-09-09T01:29:17;6.78;;;2.78;;
66970;SDS011;53901;51.466;-2.588;2022-09-09T01:34:22;4.05;;;2.60;;
66970;SDS011;53901;51.466;-2.588;2022-09-09T01:36:53;4.72;;;2.50;;
66970;SDS011;53901;51.466;-2.588;2022-09-09T01:39:36;5.50;;;2.35;;
66970;SDS011;53901;51.466;-2.588;2022-09-09T01:42:03;4.82;;;2.38;;
66970;SDS011;53901;51.466;-2.588;2022-09-09T01:44:30;12.75;;;3.30;;
66970;SDS011;53901;51.466;-2.588;2022-09-09T01:46:56;5.72;;;2.47;;
66970;SDS011;53901;51.466;-2.588;2022-09-09T01:49:21;4.25;;;2.40;;
66970;SDS011;53901;51.466;-2.588;2022-09-09T01:51:48;6.38;;;2.50;;
66970;SDS011;53901;51.466;-2.588;2022-09-09T01:54:17;5.05;;;2.58;;
66970;SDS011;53901;51.466;-2.588;2022-09-09T02:07:03;10.32;;;2.70;;
66970;SDS011;53901;51.466;-2.588;2022-09-09T02:09:34;6.30;;;2.55;;
66970;SDS011;53901;51.466;-2.588;2022-09-09T02:12:34;6.15;;;2.58;;
66970;SDS011;53901;51.466;-2.588;2022-09-09T02:14:55;5.88;;;2.28;;
66970;SDS011;53901;51.466;-2.588;2022-09-09T02:17:24;3.03;;;1.90;;
66970;SDS011;53901;51.466;-2.588;2022-09-09T02:19:54;4.85;;;2.13;;
66970;SDS011;53901;51.466;-2.588;2022-09-09T02:22:24;4.45;;;2.17;;
66970;SDS011;53901;51.466;-2.588;2022-09-09T02:24:51;4.05;;;2.00;;
66970;SDS011;53901;51.466;-2.588;2022-09-09T02:27:19;8.30;;;2.10;;
66970;SDS011;53901;51.466;-2.588;2022-09-09T02:29:46;4.13;;;1.98;;
66970;SDS011;53901;51.466;-2.588;2022-09-09T02:32:14;3.42;;;1.77;;
66970;SDS011;53901;51.466;-2.588;2022-09-09T02:34:45;6.50;;;2.25;;
66970;SDS011;53901;51.466;-2.588;2022-09-09T02:37:23;5.95;;;1.92;;
66970;SDS011;53901;51.466;-2.588;2022-09-09T02:39:53;4.43;;;2.03;;
66970;SDS011;53901;51.466;-2.588;2022-09-09T02:42:19;6.55;;;1.90;;
66970;SDS011;53901;51.466;-2.588;2022-09-09T02:44:45;6.05;;;1.80;;
66970;SDS011;53901;51.466;-2.588;2022-09-09T03:00:42;4.85;;;1.73;;
66970;SDS011;53901;51.466;-2.588;2022-09-09T03:03:08;5.47;;;1.60;;
66970;SDS011;53901;51.466;-2.588;2022-09-09T03:05:52;5.32;;;1.73;;
66970;SDS011;53901;51.466;-2.588;2022-09-09T03:09:17;5.05;;;1.70;;
66970;SDS011;53901;51.466;-2.588;2022-09-09T03:11:42;6.32;;;1.95;;
66970;SDS011;53901;51.466;-2.588;2022-09-09T03:14:07;4.78;;;1.80;;
66970;SDS011;53901;51.466;-2.588;2022-09-09T03:16:33;5.45;;;1.90;;
66970;SDS011;53901;51.466;-2.588;2022-09-09T03:18:59;6.93;;;1.75;;
66970;SDS011;53901;51.466;-2.588;2022-09-09T03:21:25;4.93;;;1.80;;
66970;SDS011;53901;51.466;-2.588;2022-09-09T03:23:50;9.00;;;2.10;;
66970;SDS011;53901;51.466;-2.588;2022-09-09T03:26:16;9.52;;;2.20;;
66970;SDS011;53901;51.466;-2.588;2022-09-09T03:28:41;4.32;;;1.63;;
66970;SDS011;53901;51.466;-2.588;2022-09-09T03:31:07;4.95;;;1.92;;
66970;SDS011;53901;51.466;-2.588;2022-09-09T03:33:35;4.15;;;2.00;;
66970;SDS011;53901;51.466;-2.588;2022-09-09T03:36:02;7.22;;;2.20;;
66970;SDS011;53901;51.466;-2.588;2022-09-09T03:38:27;4.22;;;1.70;;
66970;SDS011;53901;51.466;-2.588;2022-09-09T03:40:54;2.65;;;1.70;;
66970;SDS011;53901;51.466;-2.588;2022-09-09T03:43:23;4.88;;;1.80;;
66970;SDS011;53901;51.466;-2.588;2022-09-09T03:45:49;4.38;;;1.85;;
66970;SDS011;53901;51.466;-2.588;2022-09-09T03:48:16;5.05;;;2.10;;
66970;SDS011;53901;51.466;-2.588;2022-09-09T03:50:45;7.25;;;1.88;;
66970;SDS011;53901;51.466;-2.588;2022-09-09T03:53:15;7.13;;;2.28;;
66970;SDS011;53901;51.466;-2.588;2022-09-09T03:55:47;4.50;;;2.03;;
66970;SDS011;53901;51.466;-2.588;2022-09-09T03:58:19;5.97;;;2.20;;
66970;SDS011;53901;51.466;-2.588;2022-09-09T04:03:24;10.07;;;1.90;;
66970;SDS011;53901;51.466;-2.588;2022-09-09T04:05:50;6.10;;;2.20;;
66970;SDS011;53901;51.466;-2.588;2022-09-09T04:08:16;4.38;;;1.90;;
66970;SDS011;53901;51.466;-2.588;2022-09-09T04:10:47;3.85;;;1.90;;
66970;SDS011;53901;51.466;-2.588;2022-09-09T04:13:14;4.95;;;1.80;;
66970;SDS011;53901;51.466;-2.588;2022-09-09T04:15:41;6.30;;;2.10;;
66970;SDS011;53901;51.466;-2.588;2022-09-09T04:18:07;5.45;;;2.17;;
66970;SDS011;53901;51.466;-2.588;2022-09-09T04:20:32;3.20;;;1.85;;
66970;SDS011;53901;51.466;-2.588;2022-09-09T04:22:58;3.20;;;1.73;;
66970;SDS011;53901;51.466;-2.588;2022-09-09T04:25:24;6.50;;;1.80;;
66970;SDS011;53901;51.466;-2.588;2022-09-09T04:27:57;6.93;;;1.80;;
66970;SDS011;53901;51.466;-2.588;2022-09-09T04:30:23;4.90;;;1.52;;
66970;SDS011;53901;51.466;-2.588;2022-09-09T04:32:50;3.83;;;1.63;;
66970;SDS011;53901;51.466;-2.588;2022-09-09T04:35:15;6.93;;;1.80;;
66970;SDS011;53901;51.466;-2.588;2022-09-09T04:37:41;3.72;;;1.48;;
66970;SDS011;53901;51.466;-2.588;2022-09-09T04:40:06;3.53;;;1.30;;
66970;SDS011;53901;51.466;-2.588;2022-09-09T04:42:37;2.90;;;1.40;;
66970;SDS011;53901;51.466;-2.588;2022-09-09T04:45:03;4.30;;;1.60;;
66970;SDS011;53901;51.466;-2.588;2022-09-09T04:47:29;4.57;;;1.58;;
66970;SDS011;53901;51.466;-2.588;2022-09-09T04:49:55;3.63;;;1.70;;
66970;SDS011;53901;51.466;-2.588;2022-09-09T04:52:21;3.85;;;1.40;;
66970;SDS011;53901;51.466;-2.588;2022-09-09T04:54:47;5.57;;;1.50;;
66970;SDS011;53901;51.466;-2.588;2022-09-09T04:57:13;2.95;;;1.17;;
66970;SDS011;53901;51.466;-2.588;2022-09-09T04:59:38;8.95;;;1.60;;
66970;SDS011;53901;51.466;-2.588;2022-09-09T05:02:04;2.42;;;1.27;;
66970;SDS011;53901;51.466;-2.588;2022-09-09T05:04:30;3.40;;;1.27;;
66970;SDS011;53901;51.466;-2.588;2022-09-09T05:06:55;7.40;;;1.35;;
66970;SDS011;53901;51.466;-2.588;2022-09-09T05:09:21;2.42;;;1.35;;
66970;SDS011;53901;51.466;-2.588;2022-09-09T05:11:46;2.97;;;1.30;;
66970;SDS011;53901;51.466;-2.588;2022-09-09T05:14:11;6.53;;;1.38;;
66970;SDS011;53901;51.466;-2.588;2022-09-09T05:16:37;3.40;;;1.42;;
66970;SDS011;53901;51.466;-2.588;2022-09-09T05:19:02;7.78;;;1.58;;
66970;SDS011;53901;51.466;-2.588;2022-09-09T05:21:28;5.95;;;1.20;;
66970;SDS011;53901;51.466;-2.588;2022-09-09T05:23:54;4.60;;;1.10;;
66970;SDS011;53901;51.466;-2.588;2022-09-09T05:26:20;3.70;;;1.17;;
66970;SDS011;53901;51.466;-2.588;2022-09-09T05:28:47;5.93;;;1.48;;
66970;SDS011;53901;51.466;-2.588;2022-09-09T05:31:13;4.72;;;1.35;;
66970;SDS011;53901;51.466;-2.588;2022-09-09T05:33:40;9.90;;;1.10;;
66970;SDS011;53901;51.466;-2.588;2022-09-09T05:36:08;4.95;;;1.30;;
66970;SDS011;53901;51.466;-2.588;2022-09-09T05:38:36;4.18;;;1.20;;
66970;SDS011;53901;51.466;-2.588;2022-09-09T05:41:10;4.60;;;1.17;;
66970;SDS011;53901;51.466;-2.588;2022-09-09T05:43:36;8.02;;;1.40;;
66970;SDS011;53901;51.466;-2.588;2022-09-09T05:46:06;5.32;;;1.50;;
66970;SDS011;53901;51.466;-2.588;2022-09-09T05:48:34;4.57;;;1.30;;
66970;SDS011;53901;51.466;-2.588;2022-09-09T05:51:01;3.70;;;1.35;;
66970;SDS011;53901;51.466;-2.588;2022-09-09T05:53:27;5.28;;;1.38;;
66970;SDS011;53901;51.466;-2.588;2022-09-09T05:56:00;2.60;;;1.08;;
66970;SDS011;53901;51.466;-2.588;2022-09-09T05:58:28;4.63;;;1.30;;
66970;SDS011;53901;51.466;-2.588;2022-09-09T06:01:06;5.82;;;1.38;;
66970;SDS011;53901;51.466;-2.588;2022-09-09T06:03:39;4.55;;;1.50;;
66970;SDS011;53901;51.466;-2.588;2022-09-09T06:06:14;3.83;;;1.20;;
66970;SDS011;53901;51.466;-2.588;2022-09-09T06:08:47;3.53;;;1.65;;
66970;SDS011;53901;51.466;-2.588;2022-09-09T06:11:17;3.88;;;1.30;;
66970;SDS011;53901;51.466;-2.588;2022-09-09T06:13:43;8.57;;;1.60;;
66970;SDS011;53901;51.466;-2.588;2022-09-09T06:16:12;3.75;;;1.33;;
66970;SDS011;53901;51.466;-2.588;2022-09-09T06:18:39;6.30;;;1.52;;
66970;SDS011;53901;51.466;-2.588;2022-09-09T06:21:06;10.07;;;1.30;;
66970;SDS011;53901;51.466;-2.588;2022-09-09T06:23:34;4.25;;;1.38;;
66970;SDS011;53901;51.466;-2.588;2022-09-09T06:26:07;5.03;;;1.45;;
66970;SDS011;53901;51.466;-2.588;2022-09-09T06:28:38;5.57;;;1.30;;
66970;SDS011;53901;51.466;-2.588;2022-09-09T06:31:04;4.20;;;1.58;;
66970;SDS011;53901;51.466;-2.588;2022-09-09T06:33:31;5.10;;;1.38;;
66970;SDS011;53901;51.466;-2.588;2022-09-09T06:35:59;3.80;;;1.33;;
66970;SDS011;53901;51.466;-2.588;2022-09-09T06:38:26;4.22;;;1.50;;
66970;SDS011;53901;51.466;-2.588;2022-09-09T06:40:56;4.28;;;1.30;;
66970;SDS011;53901;51.466;-2.588;2022-09-09T06:43:23;8.23;;;2.53;;
66970;SDS011;53901;51.466;-2.588;2022-09-09T06:46:01;5.25;;;1.35;;
66970;SDS011;53901;51.466;-2.588;2022-09-09T06:48:29;3.38;;;1.30;;
66970;SDS011;53901;51.466;-2.588;2022-09-09T06:51:05;6.97;;;1.40;;
66970;SDS011;53901;51.466;-2.588;2022-09-09T06:53:31;5.07;;;1.55;;
66970;SDS011;53901;51.466;-2.588;2022-09-09T06:58:34;6.07;;;1.35;;
66970;SDS011;53901;51.466;-2.588;2022-09-09T07:01:04;7.18;;;1.70;;
66970;SDS011;53901;51.466;-2.588;2022-09-09T07:03:30;4.18;;;1.45;;
66970;SDS011;53901;51.466;-2.588;2022-09-09T07:05:56;4.35;;;1.38;;
66970;SDS011;53901;51.466;-2.588;2022-09-09T07:08:22;6.28;;;1.60;;
66970;SDS011;53901;51.466;-2.588;2022-09-09T07:10:48;7.88;;;1.50;;
66970;SDS011;53901;51.466;-2.588;2022-09-09T07:13:14;7.97;;;1.73;;
66970;SDS011;53901;51.466;-2.588;2022-09-09T07:15:40;4.32;;;1.40;;
66970;SDS011;53901;51.466;-2.588;2022-09-09T07:18:06;6.07;;;1.50;;
66970;SDS011;53901;51.466;-2.588;2022-09-09T07:20:32;6.22;;;1.90;;
66970;SDS011;53901;51.466;-2.588;2022-09-09T07:22:57;5.95;;;1.50;;
66970;SDS011;53901;51.466;-2.588;2022-09-09T07:25:24;5.28;;;1.52;;
66970;SDS011;53901;51.466;-2.588;2022-09-09T07:27:52;8.60;;;1.70;;
66970;SDS011;53901;51.466;-2.588;2022-09-09T07:30:18;5.95;;;1.40;;
66970;SDS011;53901;51.466;-2.588;2022-09-09T07:32:44;6.45;;;1.60;;
66970;SDS011;53901;51.466;-2.588;2022-09-09T07:35:10;8.00;;;1.60;;
66970;SDS011;53901;51.466;-2.588;2022-09-09T07:37:36;6.05;;;1.83;;
66970;SDS011;53901;51.466;-2.588;2022-09-09T07:40:02;5.65;;;1.50;;
66970;SDS011;53901;51.466;-2.588;2022-09-09T07:42:28;5.15;;;1.30;;
66970;SDS011;53901;51.466;-2.588;2022-09-09T07:44:54;5.78;;;1.80;;
66970;SDS011;53901;51.466;-2.588;2022-09-09T07:47:20;5.22;;;1.50;;
66970;SDS011;53901;51.466;-2.588;2022-09-09T07:49:45;7.47;;;1.67;;
66970;SDS011;53901;51.466;-2.588;2022-09-09T07:52:11;8.43;;;1.40;;
66970;SDS011;53901;51.466;-2.588;2022-09-09T07:54:37;5.95;;;1.30;;
66970;SDS011;53901;51.466;-2.588;2022-09-09T07:57:02;3.75;;;1.30;;
66970;SDS011;53901;51.466;-2.588;2022-09-09T07:59:29;6.28;;;1.10;;
66970;SDS011;53901;51.466;-2.588;2022-09-09T08:01:55;4.60;;;1.40;;
66970;SDS011;53901;51.466;-2.588;2022-09-09T08:04:21;5.45;;;1.40;;
66970;SDS011;53901;51.466;-2.588;2022-09-09T08:06:58;3.17;;;1.00;;
66970;SDS011;53901;51.466;-2.588;2022-09-09T08:09:26;5.30;;;1.17;;
66970;SDS011;53901;51.466;-2.588;2022-09-09T08:11:56;3.20;;;1.13;;
66970;SDS011;53901;51.466;-2.588;2022-09-09T08:14:23;2.00;;;0.85;;
66970;SDS011;53901;51.466;-2.588;2022-09-09T08:16:49;3.40;;;0.90;;
66970;SDS011;53901;51.466;-2.588;2022-09-09T08:19:15;9.70;;;1.45;;
66970;SDS011;53901;51.466;-2.588;2022-09-09T08:21:41;3.85;;;0.93;;
66970;SDS011;53901;51.466;-2.588;2022-09-09T08:24:07;2.83;;;0.90;;
66970;SDS011;53901;51.466;-2.588;2022-09-09T08:26:38;4.25;;;0.93;;
66970;SDS011;53901;51.466;-2.588;2022-09-09T08:29:06;2.88;;;0.93;;
66970;SDS011;53901;51.466;-2.588;2022-09-09T08:31:34;2.20;;;0.95;;
66970;SDS011;53901;51.466;-2.588;2022-09-09T08:34:03;2.03;;;1.20;;
66970;SDS011;53901;51.466;-2.588;2022-09-09T08:36:31;3.42;;;1.10;;
66970;SDS011;53901;51.466;-2.588;2022-09-09T08:38:58;2.60;;;1.00;;
66970;SDS011;53901;51.466;-2.588;2022-09-09T08:41:39;3.05;;;0.90;;
66970;SDS011;53901;51.466;-2.588;2022-09-09T08:58:00;3.05;;;1.13;;
66970;SDS011;53901;51.466;-2.588;2022-09-09T09:00:35;2.13;;;0.90;;
66970;SDS011;53901;51.466;-2.588;2022-09-09T09:03:28;3.33;;;0.95;;
66970;SDS011;53901;51.466;-2.588;2022-09-09T09:11:09;2.47;;;0.98;;
66970;SDS011;53901;51.466;-2.588;2022-09-09T09:13:43;3.00;;;1.00;;
66970;SDS011;53901;51.466;-2.588;2022-09-09T09:16:23;2.97;;;1.10;;
66970;SDS011;53901;51.466;-2.588;2022-09-09T09:19:00;5.47;;;1.23;;
66970;SDS011;53901;51.466;-2.588;2022-09-09T09:21:42;3.25;;;1.00;;
66970;SDS011;53901;51.466;-2.588;2022-09-09T09:24:52;2.80;;;1.50;;
66970;SDS011;53901;51.466;-2.588;2022-09-09T09:27:12;3.67;;;1.10;;
66970;SDS011;53901;51.466;-2.588;2022-09-09T09:29:39;2.15;;;1.00;;
66970;SDS011;53901;51.466;-2.588;2022-09-09T09:32:05;2.00;;;1.00;;
66970;SDS011;53901;51.466;-2.588;2022-09-09T09:34:33;1.83;;;0.95;;
66970;SDS011;53901;51.466;-2.588;2022-09-09T09:36:59;2.53;;;1.00;;
66970;SDS011;53901;51.466;-2.588;2022-09-09T09:39:29;2.63;;;1.00;;
66970;SDS011;53901;51.466;-2.588;2022-09-09T09:42:12;4.40;;;1.35;;
66970;SDS011;53901;51.466;-2.588;2022-09-09T09:44:39;2.28;;;0.90;;
66970;SDS011;53901;51.466;-2.588;2022-09-09T09:49:53;6.93;;;1.13;;
66970;SDS011;53901;51.466;-2.588;2022-09-09T09:52:21;2.45;;;1.20;;
66970;SDS011;53901;51.466;-2.588;2022-09-09T09:54:57;3.15;;;1.02;;
66970;SDS011;53901;51.466;-2.588;2022-09-09T09:57:25;2.10;;;0.82;;
66970;SDS011;53901;51.466;-2.588;2022-09-09T10:00:03;2.50;;;0.90;;
66970;SDS011;53901;51.466;-2.588;2022-09-09T10:02:39;4.75;;;1.00;;
66970;SDS011;53901;51.466;-2.588;2022-09-09T10:07:43;3.33;;;1.07;;
66970;SDS011;53901;51.466;-2.588;2022-09-09T10:10:12;4.28;;;0.98;;
66970;SDS011;53901;51.466;-2.588;2022-09-09T10:26:10;3.00;;;0.95;;
66970;SDS011;53901;51.466;-2.588;2022-09-09T10:34:02;2.65;;;1.00;;
66970;SDS011;53901;51.466;-2.588;2022-09-09T10:36:49;1.95;;;0.90;;
66970;SDS011;53901;51.466;-2.588;2022-09-09T10:39:18;4.03;;;1.05;;
66970;SDS011;53901;51.466;-2.588;2022-09-09T10:42:09;4.72;;;1.15;;
66970;SDS011;53901;51.466;-2.588;2022-09-09T10:50:11;2.67;;;0.90;;
66970;SDS011;53901;51.466;-2.588;2022-09-09T10:55:32;3.58;;;1.05;;
66970;SDS011;53901;51.466;-2.588;2022-09-09T10:58:02;1.42;;;0.80;;
66970;SDS011;53901;51.466;-2.588;2022-09-09T11:00:50;3.17;;;1.00;;
66970;SDS011;53901;51.466;-2.588;2022-09-09T11:03:20;3.58;;;1.20;;
66970;SDS011;53901;51.466;-2.588;2022-09-09T11:05:57;2.13;;;1.02;;
66970;SDS011;53901;51.466;-2.588;2022-09-09T11:08:29;3.33;;;1.38;;
66970;SDS011;53901;51.466;-2.588;2022-09-09T11:11:06;2.70;;;1.30;;
66970;SDS011;53901;51.466;-2.588;2022-09-09T11:13:42;2.97;;;1.17;;
66970;SDS011;53901;51.466;-2.588;2022-09-09T11:18:57;7.90;;;1.55;;
66970;SDS011;53901;51.466;-2.588;2022-09-09T11:21:40;3.30;;;1.60;;
66970;SDS011;53901;51.466;-2.588;2022-09-09T11:24:19;5.97;;;1.73;;
66970;SDS011;53901;51.466;-2.588;2022-09-09T11:26:52;8.60;;;1.77;;
66970;SDS011;53901;51.466;-2.588;2022-09-09T11:40:25;3.78;;;1.40;;
66970;SDS011;53901;51.466;-2.588;2022-09-09T11:43:01;5.15;;;1.40;;
66970;SDS011;53901;51.466;-2.588;2022-09-09T11:45:28;3.17;;;1.35;;
66970;SDS011;53901;51.466;-2.588;2022-09-09T11:47:55;3.05;;;1.13;;
66970;SDS011;53901;51.466;-2.588;2022-09-09T11:52:48;2.88;;;1.10;;
66970;SDS011;53901;51.466;-2.588;2022-09-09T11:55:33;2.85;;;1.52;;
66970;SDS011;53901;51.466;-2.588;2022-09-09T11:58:03;3.38;;;1.20;;
66970;SDS011;53901;51.466;-2.588;2022-09-09T12:09:07;3.90;;;1.58;;
66970;SDS011;53901;51.466;-2.588;2022-09-09T12:11:37;7.13;;;1.98;;
66970;SDS011;53901;51.466;-2.588;2022-09-09T12:14:02;3.55;;;1.80;;
66970;SDS011;53901;51.466;-2.588;2022-09-09T12:16:35;3.53;;;1.80;;
66970;SDS011;53901;51.466;-2.588;2022-09-09T12:19:06;5.30;;;2.35;;
66970;SDS011;53901;51.466;-2.588;2022-09-09T12:21:34;6.20;;;2.13;;
66970;SDS011;53901;51.466;-2.588;2022-09-09T12:24:40;4.82;;;1.90;;
66970;SDS011;53901;51.466;-2.588;2022-09-09T12:27:15;4.97;;;2.22;;
66970;SDS011;53901;51.466;-2.588;2022-09-09T12:32:27;4.93;;;1.65;;
66970;SDS011;53901;51.466;-2.588;2022-09-09T12:37:36;2.47;;;1.20;;
66970;SDS011;53901;51.466;-2.588;2022-09-09T12:42:30;5.40;;;0.98;;
66970;SDS011;53901;51.466;-2.588;2022-09-09T12:45:03;3.22;;;1.10;;
66970;SDS011;53901;51.466;-2.588;2022-09-09T12:47:49;3.45;;;1.27;;
66970;SDS011;53901;51.466;-2.588;2022-09-09T12:50:27;3.03;;;1.38;;
66970;SDS011;53901;51.466;-2.588;2022-09-09T12:52:54;2.45;;;1.35;;
66970;SDS011;53901;51.466;-2.588;2022-09-09T12:55:31;3.50;;;1.60;;
66970;SDS011;53901;51.466;-2.588;2022-09-09T12:57:58;3.60;;;1.50;;
66970;SDS011;53901;51.466;-2.588;2022-09-09T13:00:25;4.93;;;1.70;;
66970;SDS011;53901;51.466;-2.588;2022-09-09T13:02:51;4.35;;;1.70;;
66970;SDS011;53901;51.466;-2.588;2022-09-09T13:05:21;5.47;;;1.83;;
66970;SDS011;53901;51.466;-2.588;2022-09-09T13:07:48;3.20;;;1.50;;
66970;SDS011;53901;51.466;-2.588;2022-09-09T13:10:17;5.32;;;1.77;;
66970;SDS011;53901;51.466;-2.588;2022-09-09T13:12:47;7.38;;;2.17;;
66970;SDS011;53901;51.466;-2.588;2022-09-09T13:15:16;6.40;;;2.25;;
66970;SDS011;53901;51.466;-2.588;2022-09-09T13:17:49;4.97;;;2.30;;
66970;SDS011;53901;51.466;-2.588;2022-09-09T13:20:17;8.25;;;2.80;;
66970;SDS011;53901;51.466;-2.588;2022-09-09T13:22:43;8.38;;;2.60;;
66970;SDS011;53901;51.466;-2.588;2022-09-09T13:27:36;5.63;;;2.97;;
66970;SDS011;53901;51.466;-2.588;2022-09-09T13:35:34;6.07;;;2.60;;
66970;SDS011;53901;51.466;-2.588;2022-09-09T13:38:06;5.88;;;2.40;;
66970;SDS011;53901;51.466;-2.588;2022-09-09T13:40:33;5.38;;;2.72;;
66970;SDS011;53901;51.466;-2.588;2022-09-09T13:42:59;6.85;;;2.63;;
66970;SDS011;53901;51.466;-2.588;2022-09-09T13:45:25;8.88;;;2.50;;
66970;SDS011;53901;51.466;-2.588;2022-09-09T13:47:52;5.22;;;2.03;;
66970;SDS011;53901;51.466;-2.588;2022-09-09T13:52:49;5.03;;;1.90;;
66970;SDS011;53901;51.466;-2.588;2022-09-09T13:55:16;5.95;;;1.70;;
66970;SDS011;53901;51.466;-2.588;2022-09-09T14:00:21;3.13;;;1.40;;
66970;SDS011;53901;51.466;-2.588;2022-09-09T14:02:48;3.75;;;1.70;;
66970;SDS011;53901;51.466;-2.588;2022-09-09T14:05:14;6.60;;;2.20;;
66970;SDS011;53901;51.466;-2.588;2022-09-09T14:07:40;3.00;;;1.75;;
66970;SDS011;53901;51.466;-2.588;2022-09-09T14:10:07;7.78;;;2.20;;
66970;SDS011;53901;51.466;-2.588;2022-09-09T14:12:33;4.88;;;1.90;;
66970;SDS011;53901;51.466;-2.588;2022-09-09T14:14:58;5.70;;;2.28;;
66970;SDS011;53901;51.466;-2.588;2022-09-09T14:17:26;8.45;;;3.47;;
66970;SDS011;53901;51.466;-2.588;2022-09-09T14:19:56;8.77;;;3.15;;
66970;SDS011;53901;51.466;-2.588;2022-09-09T14:22:22;8.18;;;3.08;;
66970;SDS011;53901;51.466;-2.588;2022-09-09T14:24:47;3.38;;;1.70;;
66970;SDS011;53901;51.466;-2.588;2022-09-09T14:27:13;2.97;;;1.70;;
66970;SDS011;53901;51.466;-2.588;2022-09-09T14:29:39;2.90;;;1.65;;
66970;SDS011;53901;51.466;-2.588;2022-09-09T14:32:04;4.03;;;1.70;;
66970;SDS011;53901;51.466;-2.588;2022-09-09T14:34:30;2.47;;;1.35;;
66970;SDS011;53901;51.466;-2.588;2022-09-09T14:36:57;3.70;;;1.90;;
66970;SDS011;53901;51.466;-2.588;2022-09-09T14:39:24;2.67;;;1.40;;
66970;SDS011;53901;51.466;-2.588;2022-09-09T14:41:49;3.25;;;1.58;;
66970;SDS011;53901;51.466;-2.588;2022-09-09T14:44:15;6.28;;;2.28;;
66970;SDS011;53901;51.466;-2.588;2022-09-09T14:46:41;5.15;;;2.40;;
66970;SDS011;53901;51.466;-2.588;2022-09-09T14:49:07;5.35;;;2.20;;
66970;SDS011;53901;51.466;-2.588;2022-09-09T14:51:32;3.70;;;1.90;;
66970;SDS011;53901;51.466;-2.588;2022-09-09T14:53:59;2.60;;;1.80;;
66970;SDS011;53901;51.466;-2.588;2022-09-09T14:56:26;5.72;;;2.03;;
66970;SDS011;53901;51.466;-2.588;2022-09-09T14:58:53;5.82;;;1.77;;
66970;SDS011;53901;51.466;-2.588;2022-09-09T15:01:20;4.43;;;1.95;;
66970;SDS011;53901;51.466;-2.588;2022-09-09T15:03:51;2.55;;;1.33;;
66970;SDS011;53901;51.466;-2.588;2022-09-09T15:06:18;4.10;;;1.30;;
66970;SDS011;53901;51.466;-2.588;2022-09-09T15:08:44;1.50;;;0.93;;
66970;SDS011;53901;51.466;-2.588;2022-09-09T15:11:11;4.20;;;1.27;;
66970;SDS011;53901;51.466;-2.588;2022-09-09T15:13:37;3.15;;;1.10;;
66970;SDS011;53901;51.466;-2.588;2022-09-09T15:16:08;4.30;;;1.05;;
66970;SDS011;53901;51.466;-2.588;2022-09-09T15:18:33;1.45;;;1.00;;
66970;SDS011;53901;51.466;-2.588;2022-09-09T15:21:01;5.13;;;1.27;;
66970;SDS011;53901;51.466;-2.588;2022-09-09T15:23:33;3.58;;;1.80;;
66970;SDS011;53901;51.466;-2.588;2022-09-09T15:26:01;5.45;;;1.30;;
66970;SDS011;53901;51.466;-2.588;2022-09-09T15:28:28;4.20;;;1.30;;
66970;SDS011;53901;51.466;-2.588;2022-09-09T15:30:53;4.13;;;1.10;;
66970;SDS011;53901;51.466;-2.588;2022-09-09T15:33:19;5.22;;;1.50;;
66970;SDS011;53901;51.466;-2.588;2022-09-09T15:35:46;4.70;;;1.35;;
66970;SDS011;53901;51.466;-2.588;2022-09-09T15:38:11;3.55;;;1.70;;
66970;SDS011;53901;51.466;-2.588;2022-09-09T15:40:41;3.78;;;1.38;;
66970;SDS011;53901;51.466;-2.588;2022-09-09T15:43:07;4.82;;;1.60;;
66970;SDS011;53901;51.466;-2.588;2022-09-09T15:45:34;3.25;;;1.63;;
66970;SDS011;53901;51.466;-2.588;2022-09-09T15:48:00;4.93;;;1.75;;
66970;SDS011;53901;51.466;-2.588;2022-09-09T15:50:26;7.82;;;1.60;;
66970;SDS011;53901;51.466;-2.588;2022-09-09T15:52:52;6.70;;;1.55;;
66970;SDS011;53901;51.466;-2.588;2022-09-09T15:55:18;3.35;;;1.45;;
66970;SDS011;53901;51.466;-2.588;2022-09-09T15:57:45;4.88;;;2.00;;
66970;SDS011;53901;51.466;-2.588;2022-09-09T16:00:11;7.38;;;1.60;;
66970;SDS011;53901;51.466;-2.588;2022-09-09T16:02:38;3.60;;;1.52;;
66970;SDS011;53901;51.466;-2.588;2022-09-09T16:05:04;3.72;;;1.60;;
66970;SDS011;53901;51.466;-2.588;2022-09-09T16:07:29;4.18;;;1.60;;
66970;SDS011;53901;51.466;-2.588;2022-09-09T16:09:55;5.90;;;1.17;;
66970;SDS011;53901;51.466;-2.588;2022-09-09T16:12:20;6.10;;;1.48;;
66970;SDS011;53901;51.466;-2.588;2022-09-09T16:14:46;4.15;;;1.30;;
66970;SDS011;53901;51.466;-2.588;2022-09-09T16:17:11;3.72;;;1.42;;
66970;SDS011;53901;51.466;-2.588;2022-09-09T16:19:37;3.50;;;1.25;;
66970;SDS011;53901;51.466;-2.588;2022-09-09T16:22:03;6.47;;;1.40;;
66970;SDS011;53901;51.466;-2.588;2022-09-09T16:24:29;2.90;;;1.13;;
66970;SDS011;53901;51.466;-2.588;2022-09-09T16:26:55;5.78;;;1.48;;
66970;SDS011;53901;51.466;-2.588;2022-09-09T16:29:22;3.90;;;1.35;;
66970;SDS011;53901;51.466;-2.588;2022-09-09T16:31:49;3.92;;;1.33;;
66970;SDS011;53901;51.466;-2.588;2022-09-09T16:34:15;5.05;;;2.33;;
66970;SDS011;53901;51.466;-2.588;2022-09-09T16:36:42;4.00;;;1.10;;
66970;SDS011;53901;51.466;-2.588;2022-09-09T16:39:16;4.30;;;1.60;;
66970;SDS011;53901;51.466;-2.588;2022-09-09T16:41:43;4.80;;;1.40;;
66970;SDS011;53901;51.466;-2.588;2022-09-09T16:44:11;3.70;;;0.95;;
66970;SDS011;53901;51.466;-2.588;2022-09-09T16:46:38;2.83;;;1.30;;
66970;SDS011;53901;51.466;-2.588;2022-09-09T16:49:06;1.98;;;1.08;;
66970;SDS011;53901;51.466;-2.588;2022-09-09T16:51:34;5.07;;;1.45;;
66970;SDS011;53901;51.466;-2.588;2022-09-09T16:54:08;5.22;;;1.38;;
66970;SDS011;53901;51.466;-2.588;2022-09-09T16:56:38;3.47;;;1.63;;
66970;SDS011;53901;51.466;-2.588;2022-09-09T16:59:27;3.75;;;1.50;;
66970;SDS011;53901;51.466;-2.588;2022-09-09T17:01:53;3.13;;;1.38;;
66970;SDS011;53901;51.466;-2.588;2022-09-09T17:04:19;4.55;;;1.48;;
66970;SDS011;53901;51.466;-2.588;2022-09-09T17:06:51;4.68;;;1.80;;
66970;SDS011;53901;51.466;-2.588;2022-09-09T17:09:18;3.80;;;1.95;;
66970;SDS011;53901;51.466;-2.588;2022-09-09T17:11:44;6.97;;;2.10;;
66970;SDS011;53901;51.466;-2.588;2022-09-09T17:14:12;5.88;;;2.75;;
66970;SDS011;53901;51.466;-2.588;2022-09-09T17:16:40;4.40;;;2.58;;
66970;SDS011;53901;51.466;-2.588;2022-09-09T17:19:06;5.18;;;2.33;;
66970;SDS011;53901;51.466;-2.588;2022-09-09T17:21:33;6.45;;;2.10;;
66970;SDS011;53901;51.466;-2.588;2022-09-09T17:23:59;16.42;;;9.02;;
66970;SDS011;53901;51.466;-2.588;2022-09-09T17:26:28;5.95;;;2.70;;
66970;SDS011;53901;51.466;-2.588;2022-09-09T17:28:58;6.82;;;2.97;;